sensor_id;sensor_type;location;lat;lon;timestamp;pressure;altitude;pressure_sealevel;temperature;humidity
51289;BME280;37372;52.294;5.152;2023-04-22T00:02:28;100858.47;;;7.69;91.24
51289;BME280;37372;52.294;5.152;2023-04-22T00:04:53;100861.44;;;7.68;91.76
51289;BME280;37372;52.294;5.152;2023-04-22T00:07:27;100864.56;;;7.65;91.48
51289;BME280;37372;52.294;5.152;2023-04-22T00:10:02;100862.50;;;7.60;91.56
51289;BME280;37372;52.294;5.152;2023-04-22T00:12:28;100865.22;;;7.60;91.88
51289;BME280;37372;52.294;5.152;2023-04-22T00:14:53;100862.69;;;7.58;92.03
51289;BME280;37372;52.294;5.152;2023-04-22T00:17:26;100859.56;;;7.55;91.75
51289;BME280;37372;52.294;5.152;2023-04-22T00:19:55;100857.44;;;7.57;92.02
51289;BME280;37372;52.294;5.152;2023-04-22T00:22:25;100847.34;;;7.64;92.17
51289;BME280;37372;52.294;5.152;2023-04-22T00:24:52;100860.38;;;7.62;91.72
51289;BME280;37372;52.294;5.152;2023-04-22T00:27:31;100850.94;;;7.58;91.52
51289;BME280;37372;52.294;5.152;2023-04-22T00:29:56;100854.94;;;7.55;91.49
51289;BME280;37372;52.294;5.152;2023-04-22T00:32:49;100848.19;;;7.51;91.56
51289;BME280;37372;52.294;5.152;2023-04-22T00:35:15;100850.72;;;7.46;91.52
51289;BME280;37372;52.294;5.152;2023-04-22T00:37:40;100845.25;;;7.46;92.07
51289;BME280;37372;52.294;5.152;2023-04-22T00:40:07;100839.41;;;7.43;91.51
51289;BME280;37372;52.294;5.152;2023-04-22T00:42:36;100846.53;;;7.37;91.74
51289;BME280;37372;52.294;5.152;2023-04-22T00:45:04;100842.34;;;7.35;91.80
51289;BME280;37372;52.294;5.152;2023-04-22T00:47:34;100840.00;;;7.31;92.06
51289;BME280;37372;52.294;5.152;2023-04-22T00:50:03;100842.13;;;7.29;92.04
51289;BME280;37372;52.294;5.152;2023-04-22T00:52:52;100842.75;;;7.31;92.21
51289;BME280;37372;52.294;5.152;2023-04-22T00:55:18;100841.28;;;7.22;91.72
51289;BME280;37372;52.294;5.152;2023-04-22T00:57:54;100841.91;;;7.18;92.08
51289;BME280;37372;52.294;5.152;2023-04-22T01:00:22;100849.66;;;7.14;92.24
51289;BME280;37372;52.294;5.152;2023-04-22T01:02:55;100845.69;;;7.10;92.05
51289;BME280;37372;52.294;5.152;2023-04-22T01:05:22;100851.97;;;7.11;92.74
51289;BME280;37372;52.294;5.152;2023-04-22T01:07:50;100844.84;;;7.10;92.48
51289;BME280;37372;52.294;5.152;2023-04-22T01:10:16;100850.09;;;7.11;92.56
51289;BME280;37372;52.294;5.152;2023-04-22T01:12:43;100854.25;;;7.07;92.06
51289;BME280;37372;52.294;5.152;2023-04-22T01:15:09;100853.84;;;7.03;92.55
51289;BME280;37372;52.294;5.152;2023-04-22T01:17:35;100861.59;;;7.00;92.65
51289;BME280;37372;52.294;5.152;2023-04-22T01:20:02;100850.69;;;7.00;92.84
51289;BME280;37372;52.294;5.152;2023-04-22T01:22:36;100858.88;;;7.00;92.53
51289;BME280;37372;52.294;5.152;2023-04-22T01:25:05;100852.16;;;6.96;92.71
51289;BME280;37372;52.294;5.152;2023-04-22T01:27:37;100851.31;;;6.95;92.84
51289;BME280;37372;52.294;5.152;2023-04-22T01:30:07;100851.31;;;6.95;92.77
51289;BME280;37372;52.294;5.152;2023-04-22T01:32:34;100856.13;;;6.93;92.80
51289;BME280;37372;52.294;5.152;2023-04-22T01:35:07;100853.41;;;6.93;92.95
51289;BME280;37372;52.294;5.152;2023-04-22T01:37:42;100853.84;;;6.90;92.77
51289;BME280;37372;52.294;5.152;2023-04-22T01:40:09;100860.97;;;6.91;92.55
51289;BME280;37372;52.294;5.152;2023-04-22T01:42:41;100856.75;;;6.89;92.57
51289;BME280;37372;52.294;5.152;2023-04-22T01:45:07;100856.13;;;6.87;92.68
51289;BME280;37372;52.294;5.152;2023-04-22T01:47:33;100856.94;;;6.87;92.64
51289;BME280;37372;52.294;5.152;2023-04-22T01:50:03;100867.22;;;6.85;92.72
51289;BME280;37372;52.294;5.152;2023-04-22T01:52:32;100857.16;;;6.86;92.74
51289;BME280;37372;52.294;5.152;2023-04-22T01:54:57;100863.66;;;6.85;92.68
51289;BME280;37372;52.294;5.152;2023-04-22T01:57:27;100861.34;;;6.82;92.66
51289;BME280;37372;52.294;5.152;2023-04-22T01:59:54;100860.72;;;6.79;92.62
51289;BME280;37372;52.294;5.152;2023-04-22T02:02:27;100861.16;;;6.76;92.22
51289;BME280;37372;52.294;5.152;2023-04-22T02:04:56;100863.44;;;6.73;92.22
51289;BME280;37372;52.294;5.152;2023-04-22T02:07:52;100860.25;;;6.69;92.84
51289;BME280;37372;52.294;5.152;2023-04-22T02:10:18;100860.47;;;6.68;93.09
51289;BME280;37372;52.294;5.152;2023-04-22T02:12:54;100865.09;;;6.67;92.62
51289;BME280;37372;52.294;5.152;2023-04-22T02:15:19;100854.38;;;6.66;92.79
51289;BME280;37372;52.294;5.152;2023-04-22T02:17:46;100859.00;;;6.65;92.55
51289;BME280;37372;52.294;5.152;2023-04-22T02:20:13;100859.22;;;6.64;92.33
51289;BME280;37372;52.294;5.152;2023-04-22T02:22:43;100864.44;;;6.59;92.02
51289;BME280;37372;52.294;5.152;2023-04-22T02:25:15;100861.47;;;6.54;92.22
51289;BME280;37372;52.294;5.152;2023-04-22T02:27:51;100860.19;;;6.49;92.05
51289;BME280;37372;52.294;5.152;2023-04-22T02:30:21;100865.44;;;6.44;92.09
51289;BME280;37372;52.294;5.152;2023-04-22T02:32:55;100857.44;;;6.43;92.10
51289;BME280;37372;52.294;5.152;2023-04-22T02:35:21;100849.44;;;6.35;91.98
51289;BME280;37372;52.294;5.152;2023-04-22T02:37:52;100839.16;;;6.30;91.92
51289;BME280;37372;52.294;5.152;2023-04-22T02:40:20;100855.72;;;6.29;92.05
51289;BME280;37372;52.294;5.152;2023-04-22T02:42:56;100852.31;;;6.20;91.72
51289;BME280;37372;52.294;5.152;2023-04-22T02:45:21;100852.28;;;6.13;91.75
51289;BME280;37372;52.294;5.152;2023-04-22T02:47:57;100847.47;;;6.15;92.09
51289;BME280;37372;52.294;5.152;2023-04-22T02:50:23;100845.56;;;6.09;91.48
51289;BME280;37372;52.294;5.152;2023-04-22T02:52:50;100843.44;;;6.05;91.88
51289;BME280;37372;52.294;5.152;2023-04-22T02:55:15;100843.00;;;6.01;91.59
51289;BME280;37372;52.294;5.152;2023-04-22T02:57:41;100837.75;;;6.00;91.64
51289;BME280;37372;52.294;5.152;2023-04-22T03:00:08;100837.31;;;5.96;91.64
51289;BME280;37372;52.294;5.152;2023-04-22T03:02:42;100836.25;;;5.97;91.55
51289;BME280;37372;52.294;5.152;2023-04-22T03:05:09;100835.22;;;5.98;91.81
51289;BME280;37372;52.294;5.152;2023-04-22T03:07:50;100830.41;;;5.93;91.35
51289;BME280;37372;52.294;5.152;2023-04-22T03:10:24;100826.34;;;5.89;91.46
51289;BME280;37372;52.294;5.152;2023-04-22T03:12:50;100821.91;;;5.82;91.12
51289;BME280;37372;52.294;5.152;2023-04-22T03:15:15;100826.88;;;5.71;90.96
51289;BME280;37372;52.294;5.152;2023-04-22T03:17:43;100822.03;;;5.67;91.44
51289;BME280;37372;52.294;5.152;2023-04-22T03:20:10;100822.44;;;5.64;91.43
51289;BME280;37372;52.294;5.152;2023-04-22T03:22:37;100813.63;;;5.62;91.39
51289;BME280;37372;52.294;5.152;2023-04-22T03:25:29;100814.47;;;5.62;91.63
51289;BME280;37372;52.294;5.152;2023-04-22T03:28:03;100816.78;;;5.65;91.71
51289;BME280;37372;52.294;5.152;2023-04-22T03:30:32;100810.13;;;5.68;91.46
51289;BME280;37372;52.294;5.152;2023-04-22T03:33:07;100805.31;;;5.70;91.39
51289;BME280;37372;52.294;5.152;2023-04-22T03:35:32;100798.19;;;5.69;91.18
51289;BME280;37372;52.294;5.152;2023-04-22T03:38:05;100797.34;;;5.68;91.40
51289;BME280;37372;52.294;5.152;2023-04-22T03:40:35;100807.78;;;5.65;91.59
51289;BME280;37372;52.294;5.152;2023-04-22T03:43:31;100798.19;;;5.69;92.33
51289;BME280;37372;52.294;5.152;2023-04-22T03:46:00;100785.84;;;5.73;92.41
51289;BME280;37372;52.294;5.152;2023-04-22T03:48:29;100791.47;;;5.71;92.15
51289;BME280;37372;52.294;5.152;2023-04-22T03:51:00;100791.47;;;5.71;92.47
51289;BME280;37372;52.294;5.152;2023-04-22T03:53:26;100785.66;;;5.75;92.39
51289;BME280;37372;52.294;5.152;2023-04-22T03:55:52;100786.28;;;5.77;92.45
51289;BME280;37372;52.294;5.152;2023-04-22T03:58:18;100787.13;;;5.77;92.72
51289;BME280;37372;52.294;5.152;2023-04-22T04:00:43;100780.84;;;5.77;92.25
51289;BME280;37372;52.294;5.152;2023-04-22T04:03:09;100769.97;;;5.77;92.57
51289;BME280;37372;52.294;5.152;2023-04-22T04:05:35;100771.03;;;5.82;92.83
51289;BME280;37372;52.294;5.152;2023-04-22T04:08:01;100773.50;;;5.77;92.94
51289;BME280;37372;52.294;5.152;2023-04-22T04:10:27;100774.34;;;5.78;92.72
51289;BME280;37372;52.294;5.152;2023-04-22T04:12:54;100774.59;;;5.83;92.96
51289;BME280;37372;52.294;5.152;2023-04-22T04:15:23;100772.09;;;5.81;93.00
51289;BME280;37372;52.294;5.152;2023-04-22T04:17:55;100767.25;;;5.83;92.51
51289;BME280;37372;52.294;5.152;2023-04-22T04:20:21;100763.28;;;5.86;92.56
51289;BME280;37372;52.294;5.152;2023-04-22T04:22:46;100758.13;;;5.91;92.30
51289;BME280;37372;52.294;5.152;2023-04-22T04:25:12;100757.31;;;5.97;92.30
51289;BME280;37372;52.294;5.152;2023-04-22T04:27:42;100758.97;;;5.98;92.19
51289;BME280;37372;52.294;5.152;2023-04-22T04:30:09;100760.69;;;5.99;92.15
51289;BME280;37372;52.294;5.152;2023-04-22T04:32:35;100755.03;;;6.01;92.14
51289;BME280;37372;52.294;5.152;2023-04-22T04:35:00;100757.53;;;5.95;92.07
51289;BME280;37372;52.294;5.152;2023-04-22T04:37:26;100757.09;;;5.98;92.61
51289;BME280;37372;52.294;5.152;2023-04-22T04:39:52;100759.44;;;6.02;92.55
51289;BME280;37372;52.294;5.152;2023-04-22T04:42:24;100754.00;;;6.08;92.54
51289;BME280;37372;52.294;5.152;2023-04-22T04:44:50;100760.91;;;6.11;92.80
51289;BME280;37372;52.294;5.152;2023-04-22T04:47:16;100761.78;;;6.18;92.73
51289;BME280;37372;52.294;5.152;2023-04-22T04:49:41;100768.94;;;6.19;92.23
51289;BME280;37372;52.294;5.152;2023-04-22T04:52:08;100767.25;;;6.24;92.77
51289;BME280;37372;52.294;5.152;2023-04-22T04:54:34;100764.13;;;6.28;92.56
51289;BME280;37372;52.294;5.152;2023-04-22T04:57:00;100749.06;;;6.32;92.53
51289;BME280;37372;52.294;5.152;2023-04-22T04:59:26;100752.41;;;6.34;92.26
51289;BME280;37372;52.294;5.152;2023-04-22T05:01:52;100756.41;;;6.38;92.15
51289;BME280;37372;52.294;5.152;2023-04-22T05:04:20;100750.97;;;6.38;92.08
51289;BME280;37372;52.294;5.152;2023-04-22T05:06:49;100751.38;;;6.41;92.30
51289;BME280;37372;52.294;5.152;2023-04-22T05:09:16;100745.53;;;6.44;91.96
51289;BME280;37372;52.294;5.152;2023-04-22T05:11:41;100750.34;;;6.49;92.12
51289;BME280;37372;52.294;5.152;2023-04-22T05:14:07;100750.78;;;6.53;91.94
51289;BME280;37372;52.294;5.152;2023-04-22T05:16:32;100752.25;;;6.55;91.55
51289;BME280;37372;52.294;5.152;2023-04-22T05:18:57;100747.84;;;6.61;91.94
51289;BME280;37372;52.294;5.152;2023-04-22T05:21:23;100757.09;;;6.66;91.74
51289;BME280;37372;52.294;5.152;2023-04-22T05:23:52;100762.78;;;6.71;91.74
51289;BME280;37372;52.294;5.152;2023-04-22T05:26:18;100757.09;;;6.73;91.57
51289;BME280;37372;52.294;5.152;2023-04-22T05:28:44;100760.88;;;6.78;91.66
51289;BME280;37372;52.294;5.152;2023-04-22T05:31:10;100752.94;;;6.84;91.67
51289;BME280;37372;52.294;5.152;2023-04-22T05:33:35;100758.38;;;6.84;91.29
51289;BME280;37372;52.294;5.152;2023-04-22T05:36:01;100756.69;;;6.83;91.31
51289;BME280;37372;52.294;5.152;2023-04-22T05:38:59;100751.66;;;6.86;91.51
51289;BME280;37372;52.294;5.152;2023-04-22T05:41:25;100757.13;;;6.86;91.61
51289;BME280;37372;52.294;5.152;2023-04-22T05:43:51;100744.94;;;6.89;91.57
51289;BME280;37372;52.294;5.152;2023-04-22T05:46:16;100755.00;;;6.88;91.66
51289;BME280;37372;52.294;5.152;2023-04-22T05:48:42;100752.09;;;6.90;91.61
51289;BME280;37372;52.294;5.152;2023-04-22T05:51:08;100754.59;;;6.98;92.55
51289;BME280;37372;52.294;5.152;2023-04-22T05:53:33;100772.66;;;6.99;91.47
51289;BME280;37372;52.294;5.152;2023-04-22T05:55:59;100765.75;;;7.03;91.74
51289;BME280;37372;52.294;5.152;2023-04-22T05:58:35;100759.22;;;7.11;91.98
51289;BME280;37372;52.294;5.152;2023-04-22T06:01:02;100758.78;;;7.20;92.16
51289;BME280;37372;52.294;5.152;2023-04-22T06:03:35;100761.09;;;7.37;91.98
51289;BME280;37372;52.294;5.152;2023-04-22T06:06:00;100766.94;;;7.47;91.92
51289;BME280;37372;52.294;5.152;2023-04-22T06:08:37;100757.50;;;7.49;91.45
51289;BME280;37372;52.294;5.152;2023-04-22T06:11:03;100762.13;;;7.55;91.50
51289;BME280;37372;52.294;5.152;2023-04-22T06:13:39;100758.31;;;7.63;91.17
51289;BME280;37372;52.294;5.152;2023-04-22T06:16:05;100757.47;;;7.63;90.71
51289;BME280;37372;52.294;5.152;2023-04-22T06:18:37;100760.59;;;7.66;91.26
51289;BME280;37372;52.294;5.152;2023-04-22T06:21:02;100760.81;;;7.71;91.20
51289;BME280;37372;52.294;5.152;2023-04-22T06:23:28;100760.59;;;7.79;91.50
51289;BME280;37372;52.294;5.152;2023-04-22T06:25:54;100763.09;;;7.87;90.70
51289;BME280;37372;52.294;5.152;2023-04-22T06:28:20;100756.97;;;7.92;91.15
51289;BME280;37372;52.294;5.152;2023-04-22T06:30:46;100757.97;;;7.98;90.92
51289;BME280;37372;52.294;5.152;2023-04-22T06:33:12;100751.28;;;8.00;90.96
51289;BME280;37372;52.294;5.152;2023-04-22T06:35:38;100736.75;;;8.06;91.33
51289;BME280;37372;52.294;5.152;2023-04-22T06:38:04;100733.97;;;8.13;91.29
51289;BME280;37372;52.294;5.152;2023-04-22T06:40:32;100731.44;;;8.18;90.94
51289;BME280;37372;52.294;5.152;2023-04-22T06:42:57;100729.47;;;8.32;91.33
51289;BME280;37372;52.294;5.152;2023-04-22T06:45:24;100718.31;;;8.40;90.96
51289;BME280;37372;52.294;5.152;2023-04-22T06:47:53;100720.94;;;8.53;91.10
51289;BME280;37372;52.294;5.152;2023-04-22T06:50:19;100721.91;;;8.65;90.38
51289;BME280;37372;52.294;5.152;2023-04-22T06:52:44;100709.44;;;8.76;90.55
51289;BME280;37372;52.294;5.152;2023-04-22T06:55:10;100721.53;;;8.87;89.86
51289;BME280;37372;52.294;5.152;2023-04-22T06:57:36;100700.22;;;8.95;89.87
51289;BME280;37372;52.294;5.152;2023-04-22T07:00:03;100706.91;;;9.00;88.68
51289;BME280;37372;52.294;5.152;2023-04-22T07:02:29;100691.13;;;9.02;88.57
51289;BME280;37372;52.294;5.152;2023-04-22T07:04:55;100692.94;;;9.08;88.32
51289;BME280;37372;52.294;5.152;2023-04-22T07:07:21;100691.72;;;9.04;88.81
51289;BME280;37372;52.294;5.152;2023-04-22T07:09:46;100684.72;;;9.08;88.34
51289;BME280;37372;52.294;5.152;2023-04-22T07:12:15;100688.13;;;9.28;88.45
51289;BME280;37372;52.294;5.152;2023-04-22T07:14:44;100687.00;;;9.36;87.96
51289;BME280;37372;52.294;5.152;2023-04-22T07:17:10;100696.56;;;9.45;89.00
51289;BME280;37372;52.294;5.152;2023-04-22T07:19:36;100699.88;;;9.54;87.56
51289;BME280;37372;52.294;5.152;2023-04-22T07:22:02;100694.38;;;9.72;87.96
51289;BME280;37372;52.294;5.152;2023-04-22T07:24:28;100695.81;;;9.93;86.65
51289;BME280;37372;52.294;5.152;2023-04-22T07:26:53;100696.81;;;9.98;85.48
51289;BME280;37372;52.294;5.152;2023-04-22T07:29:18;100689.94;;;10.08;86.23
51289;BME280;37372;52.294;5.152;2023-04-22T07:31:44;100693.25;;;10.10;85.05
51289;BME280;37372;52.294;5.152;2023-04-22T07:34:09;100694.78;;;10.24;84.67
51289;BME280;37372;52.294;5.152;2023-04-22T07:36:35;100689.47;;;10.41;84.45
51289;BME280;37372;52.294;5.152;2023-04-22T07:39:01;100692.13;;;10.47;84.19
51289;BME280;37372;52.294;5.152;2023-04-22T07:41:26;100686.75;;;10.41;83.60
51289;BME280;37372;52.294;5.152;2023-04-22T07:43:52;100702.59;;;10.39;84.63
51289;BME280;37372;52.294;5.152;2023-04-22T07:46:19;100695.22;;;10.21;84.07
51289;BME280;37372;52.294;5.152;2023-04-22T07:48:45;100692.47;;;10.21;83.97
51289;BME280;37372;52.294;5.152;2023-04-22T07:51:10;100697.47;;;10.42;84.78
51289;BME280;37372;52.294;5.152;2023-04-22T07:53:39;100695.41;;;10.68;83.90
51289;BME280;37372;52.294;5.152;2023-04-22T07:56:05;100687.56;;;10.83;83.12
51289;BME280;37372;52.294;5.152;2023-04-22T07:58:31;100685.53;;;10.90;81.75
51289;BME280;37372;52.294;5.152;2023-04-22T08:00:56;100695.78;;;10.95;81.64
51289;BME280;37372;52.294;5.152;2023-04-22T08:03:22;100701.06;;;10.96;82.08
51289;BME280;37372;52.294;5.152;2023-04-22T08:05:50;100706.69;;;11.01;82.23
51289;BME280;37372;52.294;5.152;2023-04-22T08:08:15;100713.72;;;10.97;81.94
51289;BME280;37372;52.294;5.152;2023-04-22T08:10:41;100723.16;;;11.01;81.71
51289;BME280;37372;52.294;5.152;2023-04-22T08:13:06;100717.41;;;10.91;81.58
51289;BME280;37372;52.294;5.152;2023-04-22T08:15:32;100717.75;;;10.95;80.63
51289;BME280;37372;52.294;5.152;2023-04-22T08:17:58;100708.69;;;10.82;80.80
51289;BME280;37372;52.294;5.152;2023-04-22T08:20:23;100707.84;;;10.82;80.97
51289;BME280;37372;52.294;5.152;2023-04-22T08:22:50;100707.13;;;10.87;81.15
51289;BME280;37372;52.294;5.152;2023-04-22T08:25:21;100698.19;;;10.91;80.97
51289;BME280;37372;52.294;5.152;2023-04-22T08:27:51;100695.09;;;10.99;80.15
51289;BME280;37372;52.294;5.152;2023-04-22T08:30:19;100698.66;;;11.00;79.97
51289;BME280;37372;52.294;5.152;2023-04-22T08:32:51;100684.94;;;11.00;81.12
51289;BME280;37372;52.294;5.152;2023-04-22T08:35:20;100672.06;;;11.00;81.31
51289;BME280;37372;52.294;5.152;2023-04-22T08:37:46;100661.66;;;11.14;81.07
51289;BME280;37372;52.294;5.152;2023-04-22T08:40:11;100654.38;;;11.20;79.52
51289;BME280;37372;52.294;5.152;2023-04-22T08:42:36;100659.41;;;11.23;79.19
51289;BME280;37372;52.294;5.152;2023-04-22T08:45:03;100656.19;;;11.26;78.93
51289;BME280;37372;52.294;5.152;2023-04-22T08:47:30;100655.84;;;11.34;79.64
51289;BME280;37372;52.294;5.152;2023-04-22T08:50:02;100659.50;;;11.39;78.21
51289;BME280;37372;52.294;5.152;2023-04-22T08:52:32;100660.38;;;11.40;77.61
51289;BME280;37372;52.294;5.152;2023-04-22T08:54:59;100658.31;;;11.47;76.89
51289;BME280;37372;52.294;5.152;2023-04-22T08:57:26;100653.28;;;11.56;77.10
51289;BME280;37372;52.294;5.152;2023-04-22T08:59:53;100661.38;;;11.74;78.84
51289;BME280;37372;52.294;5.152;2023-04-22T09:02:21;100663.88;;;11.87;76.71
51289;BME280;37372;52.294;5.152;2023-04-22T09:04:49;100664.31;;;11.96;73.21
51289;BME280;37372;52.294;5.152;2023-04-22T09:07:21;100659.88;;;11.95;74.52
51289;BME280;37372;52.294;5.152;2023-04-22T09:09:49;100656.38;;;12.11;74.93
51289;BME280;37372;52.294;5.152;2023-04-22T09:12:14;100656.59;;;12.10;74.11
51289;BME280;37372;52.294;5.152;2023-04-22T09:14:44;100665.84;;;12.32;74.57
51289;BME280;37372;52.294;5.152;2023-04-22T09:17:09;100652.84;;;12.44;74.63
51289;BME280;37372;52.294;5.152;2023-04-22T09:19:35;100656.53;;;12.50;74.55
51289;BME280;37372;52.294;5.152;2023-04-22T09:22:01;100653.69;;;12.62;73.45
51289;BME280;37372;52.294;5.152;2023-04-22T09:24:26;100647.78;;;12.53;73.55
51289;BME280;37372;52.294;5.152;2023-04-22T09:26:54;100631.94;;;12.77;72.79
51289;BME280;37372;52.294;5.152;2023-04-22T09:29:21;100634.63;;;12.89;72.63
51289;BME280;37372;52.294;5.152;2023-04-22T09:31:53;100626.75;;;12.97;70.05
51289;BME280;37372;52.294;5.152;2023-04-22T09:34:20;100622.66;;;13.00;69.17
51289;BME280;37372;52.294;5.152;2023-04-22T09:36:49;100617.22;;;13.05;69.57
51289;BME280;37372;52.294;5.152;2023-04-22T09:39:18;100619.41;;;13.03;71.59
51289;BME280;37372;52.294;5.152;2023-04-22T09:41:43;100628.03;;;12.56;76.31
51289;BME280;37372;52.294;5.152;2023-04-22T09:44:18;100621.34;;;12.69;77.22
51289;BME280;37372;52.294;5.152;2023-04-22T09:46:48;100622.28;;;12.58;75.73
51289;BME280;37372;52.294;5.152;2023-04-22T09:49:19;100612.25;;;12.52;77.24
51289;BME280;37372;52.294;5.152;2023-04-22T09:51:46;100597.97;;;12.55;78.92
51289;BME280;37372;52.294;5.152;2023-04-22T09:54:17;100592.75;;;12.70;78.36
51289;BME280;37372;52.294;5.152;2023-04-22T09:56:48;100576.91;;;12.60;77.75
51289;BME280;37372;52.294;5.152;2023-04-22T09:59:22;100578.66;;;12.66;77.46
51289;BME280;37372;52.294;5.152;2023-04-22T10:01:50;100565.53;;;12.73;76.65
51289;BME280;37372;52.294;5.152;2023-04-22T10:04:24;100576.84;;;12.94;76.37
51289;BME280;37372;52.294;5.152;2023-04-22T10:06:51;100564.00;;;12.99;74.99
51289;BME280;37372;52.294;5.152;2023-04-22T10:09:24;100572.63;;;13.25;75.41
51289;BME280;37372;52.294;5.152;2023-04-22T10:11:54;100589.44;;;13.23;72.36
51289;BME280;37372;52.294;5.152;2023-04-22T10:14:24;100600.00;;;13.75;72.55
51289;BME280;37372;52.294;5.152;2023-04-22T10:16:58;100610.56;;;14.05;72.79
51289;BME280;37372;52.294;5.152;2023-04-22T10:19:27;100615.75;;;14.02;72.19
51289;BME280;37372;52.294;5.152;2023-04-22T10:21:55;100618.19;;;13.98;69.67
51289;BME280;37372;52.294;5.152;2023-04-22T10:24:26;100606.38;;;14.03;70.83
51289;BME280;37372;52.294;5.152;2023-04-22T10:26:57;100614.72;;;14.62;69.86
51289;BME280;37372;52.294;5.152;2023-04-22T10:29:34;100617.72;;;14.33;69.90
51289;BME280;37372;52.294;5.152;2023-04-22T10:32:23;100613.03;;;14.34;69.88
51289;BME280;37372;52.294;5.152;2023-04-22T10:35:06;100608.97;;;14.42;68.94
51289;BME280;37372;52.294;5.152;2023-04-22T10:37:33;100602.78;;;14.56;70.72
51289;BME280;37372;52.294;5.152;2023-04-22T10:40:14;100596.47;;;14.34;69.50
51289;BME280;37372;52.294;5.152;2023-04-22T10:42:47;100602.75;;;14.51;69.15
51289;BME280;37372;52.294;5.152;2023-04-22T10:45:14;100601.56;;;14.79;67.69
51289;BME280;37372;52.294;5.152;2023-04-22T10:47:40;100599.53;;;15.07;68.31
51289;BME280;37372;52.294;5.152;2023-04-22T10:50:13;100601.34;;;15.28;66.50
51289;BME280;37372;52.294;5.152;2023-04-22T10:52:44;100590.03;;;14.87;68.52
51289;BME280;37372;52.294;5.152;2023-04-22T10:55:10;100579.44;;;14.69;68.16
51289;BME280;37372;52.294;5.152;2023-04-22T10:57:41;100591.25;;;14.65;68.04
51289;BME280;37372;52.294;5.152;2023-04-22T11:00:38;100601.06;;;14.87;66.39
51289;BME280;37372;52.294;5.152;2023-04-22T11:03:08;100605.34;;;14.63;67.41
51289;BME280;37372;52.294;5.152;2023-04-22T11:05:38;100609.69;;;14.91;68.43
51289;BME280;37372;52.294;5.152;2023-04-22T11:08:10;100618.13;;;15.16;69.18
51289;BME280;37372;52.294;5.152;2023-04-22T11:13:05;100631.84;;;15.01;69.20
51289;BME280;37372;52.294;5.152;2023-04-22T11:15:31;100625.47;;;14.96;69.92
51289;BME280;37372;52.294;5.152;2023-04-22T11:17:59;100619.34;;;14.88;69.13
51289;BME280;37372;52.294;5.152;2023-04-22T11:20:25;100604.72;;;14.93;67.39
51289;BME280;37372;52.294;5.152;2023-04-22T11:22:53;100608.66;;;15.02;67.58
51289;BME280;37372;52.294;5.152;2023-04-22T11:25:20;100607.00;;;15.06;66.44
51289;BME280;37372;52.294;5.152;2023-04-22T11:27:46;100606.69;;;14.98;66.57
51289;BME280;37372;52.294;5.152;2023-04-22T11:30:21;100601.25;;;14.71;67.32
51289;BME280;37372;52.294;5.152;2023-04-22T11:32:53;100610.03;;;14.62;68.45
51289;BME280;37372;52.294;5.152;2023-04-22T11:35:22;100608.59;;;14.60;67.32
51289;BME280;37372;52.294;5.152;2023-04-22T11:37:50;100609.91;;;14.52;67.83
51289;BME280;37372;52.294;5.152;2023-04-22T11:40:20;100607.00;;;14.10;68.53
51289;BME280;37372;52.294;5.152;2023-04-22T11:42:46;100603.72;;;14.13;68.94
51289;BME280;37372;52.294;5.152;2023-04-22T11:45:16;100591.84;;;14.40;69.44
51289;BME280;37372;52.294;5.152;2023-04-22T11:47:41;100601.91;;;14.83;66.05
51289;BME280;37372;52.294;5.152;2023-04-22T11:50:09;100608.31;;;14.56;65.79
51289;BME280;37372;52.294;5.152;2023-04-22T11:55:25;100634.78;;;14.03;67.49
51289;BME280;37372;52.294;5.152;2023-04-22T11:58:05;100639.75;;;13.79;67.99
51289;BME280;37372;52.294;5.152;2023-04-22T12:00:41;100632.00;;;13.54;71.78
51289;BME280;37372;52.294;5.152;2023-04-22T12:03:36;100639.09;;;13.50;72.44
51289;BME280;37372;52.294;5.152;2023-04-22T12:06:04;100633.97;;;13.37;75.37
51289;BME280;37372;52.294;5.152;2023-04-22T12:08:32;100629.09;;;13.22;76.67
51289;BME280;37372;52.294;5.152;2023-04-22T12:11:07;100629.16;;;13.11;76.90
51289;BME280;37372;52.294;5.152;2023-04-22T12:14:04;100631.91;;;12.94;77.96
51289;BME280;37372;52.294;5.152;2023-04-22T12:16:42;100621.59;;;13.01;78.75
51289;BME280;37372;52.294;5.152;2023-04-22T12:19:07;100627.19;;;12.89;79.51
51289;BME280;37372;52.294;5.152;2023-04-22T12:21:34;100634.66;;;12.94;80.29
51289;BME280;37372;52.294;5.152;2023-04-22T12:24:07;100636.00;;;12.74;81.12
51289;BME280;37372;52.294;5.152;2023-04-22T12:26:34;100644.34;;;12.46;82.20
51289;BME280;37372;52.294;5.152;2023-04-22T12:29:03;100637.09;;;12.40;83.41
51289;BME280;37372;52.294;5.152;2023-04-22T12:31:28;100645.91;;;12.42;83.66
51289;BME280;37372;52.294;5.152;2023-04-22T12:33:54;100646.44;;;12.39;83.50
51289;BME280;37372;52.294;5.152;2023-04-22T12:36:20;100636.94;;;12.46;83.36
51289;BME280;37372;52.294;5.152;2023-04-22T12:38:46;100629.19;;;12.43;84.77
51289;BME280;37372;52.294;5.152;2023-04-22T12:41:12;100630.50;;;12.41;84.21
51289;BME280;37372;52.294;5.152;2023-04-22T12:43:38;100637.91;;;12.40;85.26
51289;BME280;37372;52.294;5.152;2023-04-22T12:46:07;100661.75;;;12.35;85.89
51289;BME280;37372;52.294;5.152;2023-04-22T12:48:33;100677.56;;;12.28;86.42
51289;BME280;37372;52.294;5.152;2023-04-22T12:51:01;100686.81;;;12.22;86.99
51289;BME280;37372;52.294;5.152;2023-04-22T12:53:27;100684.56;;;12.18;87.28
51289;BME280;37372;52.294;5.152;2023-04-22T12:55:53;100663.69;;;12.06;87.31
51289;BME280;37372;52.294;5.152;2023-04-22T12:58:23;100647.19;;;12.06;87.27
51289;BME280;37372;52.294;5.152;2023-04-22T13:00:49;100650.16;;;12.04;87.67
51289;BME280;37372;52.294;5.152;2023-04-22T13:03:26;100656.59;;;12.10;88.23
51289;BME280;37372;52.294;5.152;2023-04-22T13:05:52;100651.75;;;12.00;88.26
51289;BME280;37372;52.294;5.152;2023-04-22T13:08:21;100638.31;;;12.04;87.03
51289;BME280;37372;52.294;5.152;2023-04-22T13:10:47;100631.16;;;12.03;87.46